Time;durP1;ratioP1;P1;durP2;ratioP2;P2;SDS_P1;SDS_P2;PMS_P1;PMS_P2;Temp;Humidity;BMP_temperature;BMP_pressure;BME280_temperature;BME280_humidity;BME280_pressure;Samples;Min_cycle;Max_cycle;Signal;HPM_P1;HPM_P2
2022/03/31 00:01:38;;;;;;;30.05;13.30;;;;;;;;;;5008074;28;20045;-69
2022/03/31 00:04:04;;;;;;;30.80;12.93;;;;;;;;;;5007924;28;20040;-69
2022/03/31 00:06:29;;;;;;;31.33;12.82;;;;;;;;;;5008464;28;20053;-69
2022/03/31 00:08:55;;;;;;;26.27;12.77;;;;;;;;;;5000125;28;20439;-69
2022/03/31 00:11:20;;;;;;;29.00;13.35;;;;;;;;;;5017769;28;20131;-69
2022/03/31 00:13:47;;;;;;;31.27;12.73;;;;;;;;;;4989246;28;20044;-69
2022/03/31 00:16:12;;;;;;;35.35;13.23;;;;;;;;;;5006623;28;20636;-69
2022/03/31 00:18:38;;;;;;;35.38;12.57;;;;;;;;;;4999996;28;20038;-69
2022/03/31 00:21:03;;;;;;;33.40;14.48;;;;;;;;;;5006236;28;20041;-69
2022/03/31 00:23:29;;;;;;;29.42;13.32;;;;;;;;;;4992487;28;20052;-69
2022/03/31 00:25:55;;;;;;;27.80;12.85;;;;;;;;;;4999824;28;20030;-68
2022/03/31 00:28:21;;;;;;;27.23;11.90;;;;;;;;;;5003592;28;20050;-68
2022/03/31 00:30:47;;;;;;;27.95;12.77;;;;;;;;;;5005125;28;20042;-69
2022/03/31 00:33:13;;;;;;;24.40;11.18;;;;;;;;;;5008546;28;20439;-69
2022/03/31 00:35:38;;;;;;;28.25;11.95;;;;;;;;;;5005855;28;20038;-69
2022/03/31 00:38:04;;;;;;;25.52;11.50;;;;;;;;;;5008819;28;20152;-69
2022/03/31 00:40:30;;;;;;;27.85;11.98;;;;;;;;;;5005773;28;20044;-69
2022/03/31 00:42:57;;;;;;;30.95;12.95;;;;;;;;;;5007297;28;20104;-68
2022/03/31 00:45:25;;;;;;;28.13;12.23;;;;;;;;;;5002963;28;20061;-68
2022/03/31 00:47:52;;;;;;;33.05;14.70;;;;;;;;;;5005793;28;20080;-69
2022/03/31 00:50:18;;;;;;;30.48;13.70;;;;;;;;;;5009212;28;20037;-69
2022/03/31 00:52:44;;;;;;;31.58;12.95;;;;;;;;;;5011646;28;20018;-69
2022/03/31 00:55:12;;;;;;;30.30;13.02;;;;;;;;;;5004647;28;20538;-69
2022/03/31 00:57:38;;;;;;;30.58;13.48;;;;;;;;;;5005878;28;20040;-69
2022/03/31 01:00:07;;;;;;;40.83;15.40;;;;;;;;;;5005179;28;20034;-69
2022/03/31 01:02:34;;;;;;;35.88;13.68;;;;;;;;;;5000575;28;20038;-69
2022/03/31 01:05:02;;;;;;;32.85;13.07;;;;;;;;;;5004896;28;20025;-69
2022/03/31 01:07:28;;;;;;;26.20;12.48;;;;;;;;;;5007095;28;20042;-71
2022/03/31 01:09:56;;;;;;;33.38;14.32;;;;;;;;;;5005658;28;20414;-71
2022/03/31 01:12:22;;;;;;;32.35;13.85;;;;;;;;;;5006708;28;20040;-70
2022/03/31 01:15:01;;;;;;;36.25;14.07;;;;;;;;;;5007031;28;20038;-71
2022/03/31 01:17:27;;;;;;;33.08;13.98;;;;;;;;;;5006423;28;20403;-71
2022/03/31 01:19:52;;;;;;;30.88;14.63;;;;;;;;;;5009414;28;20507;-71
2022/03/31 01:22:17;;;;;;;31.38;12.98;;;;;;;;;;5009713;28;20038;-71
2022/03/31 01:24:43;;;;;;;34.30;14.48;;;;;;;;;;5006070;28;20612;-71
2022/03/31 01:27:11;;;;;;;30.42;12.38;;;;;;;;;;5013810;28;20069;-71
2022/03/31 01:29:37;;;;;;;29.48;13.52;;;;;;;;;;5011910;28;20037;-71
2022/03/31 01:32:02;;;;;;;37.83;14.82;;;;;;;;;;5012398;28;20485;-71
2022/03/31 01:34:28;;;;;;;36.42;13.95;;;;;;;;;;5010651;28;20125;-71
2022/03/31 01:36:53;;;;;;;34.53;14.30;;;;;;;;;;5009467;28;20083;-71
2022/03/31 01:39:18;;;;;;;32.38;15.15;;;;;;;;;;5010023;28;20541;-71
2022/03/31 01:41:44;;;;;;;34.28;14.45;;;;;;;;;;5010031;28;20817;-71
2022/03/31 01:44:10;;;;;;;31.35;14.25;;;;;;;;;;5012144;28;20017;-71
2022/03/31 01:46:35;;;;;;;33.75;13.73;;;;;;;;;;5009518;28;20049;-71
2022/03/31 01:49:00;;;;;;;32.92;14.88;;;;;;;;;;5013394;28;20134;-71
2022/03/31 01:51:26;;;;;;;32.67;14.80;;;;;;;;;;5010573;28;20038;-70
2022/03/31 01:53:51;;;;;;;38.30;16.70;;;;;;;;;;5012430;28;20087;-71
2022/03/31 01:56:16;;;;;;;41.10;18.92;;;;;;;;;;5007888;28;20018;-70
2022/03/31 01:58:42;;;;;;;49.17;21.63;;;;;;;;;;5010349;28;20028;-70
2022/03/31 02:01:07;;;;;;;46.00;20.23;;;;;;;;;;5013631;28;20057;-71
2022/03/31 02:03:33;;;;;;;48.72;20.80;;;;;;;;;;5011572;28;20088;-71
2022/03/31 02:05:59;;;;;;;47.00;20.83;;;;;;;;;;5009504;28;20415;-71
2022/03/31 02:08:24;;;;;;;51.90;22.65;;;;;;;;;;5008027;28;20018;-71
2022/03/31 02:10:49;;;;;;;48.67;21.73;;;;;;;;;;5008968;28;20018;-71
2022/03/31 02:13:15;;;;;;;46.13;20.48;;;;;;;;;;5009416;28;20030;-71
2022/03/31 02:15:41;;;;;;;49.63;20.40;;;;;;;;;;5012894;28;20036;-71
2022/03/31 02:18:07;;;;;;;44.35;19.10;;;;;;;;;;5011778;28;20576;-69
2022/03/31 02:20:32;;;;;;;42.45;17.60;;;;;;;;;;5007215;28;20117;-69
2022/03/31 02:23:00;;;;;;;50.83;20.75;;;;;;;;;;5012587;28;20989;-69
2022/03/31 02:25:26;;;;;;;47.20;20.33;;;;;;;;;;5010041;28;20148;-69
2022/03/31 02:27:52;;;;;;;42.60;19.02;;;;;;;;;;5012728;28;20041;-71
2022/03/31 02:30:19;;;;;;;46.72;21.42;;;;;;;;;;5013631;28;20041;-71
2022/03/31 02:32:44;;;;;;;41.40;19.02;;;;;;;;;;5007562;28;20033;-71
2022/03/31 02:35:11;;;;;;;44.00;18.83;;;;;;;;;;5009447;28;20030;-70
2022/03/31 02:37:36;;;;;;;49.42;19.35;;;;;;;;;;5005466;28;20044;-71
2022/03/31 02:40:04;;;;;;;46.20;18.85;;;;;;;;;;5008773;28;20471;-71
2022/03/31 02:42:29;;;;;;;40.22;17.95;;;;;;;;;;5008998;28;20499;-71
2022/03/31 02:44:54;;;;;;;44.75;17.80;;;;;;;;;;5009293;28;20038;-71
2022/03/31 02:47:20;;;;;;;41.67;19.40;;;;;;;;;;5008244;28;20038;-71
2022/03/31 02:49:45;;;;;;;40.25;18.13;;;;;;;;;;5011536;28;20392;-71
2022/03/31 02:52:10;;;;;;;44.90;17.55;;;;;;;;;;5008469;28;20079;-71
2022/03/31 02:57:20;;;;;;;43.05;18.08;;;;;;;;;;5000216;28;20108;-70
2022/03/31 02:59:45;;;;;;;38.30;17.60;;;;;;;;;;5008332;28;20554;-71
2022/03/31 03:02:11;;;;;;;41.45;17.23;;;;;;;;;;5013040;28;20134;-71
2022/03/31 03:04:36;;;;;;;38.35;15.88;;;;;;;;;;5012590;28;20033;-71
2022/03/31 03:07:02;;;;;;;39.47;16.67;;;;;;;;;;5010820;28;20065;-71
2022/03/31 03:09:28;;;;;;;36.50;16.05;;;;;;;;;;5009422;28;20046;-71
2022/03/31 03:11:53;;;;;;;39.50;18.10;;;;;;;;;;5009663;28;20038;-71
2022/03/31 03:14:18;;;;;;;36.33;15.13;;;;;;;;;;5008985;28;20473;-71
2022/03/31 03:16:44;;;;;;;39.28;16.90;;;;;;;;;;5007251;28;20484;-71
2022/03/31 03:19:10;;;;;;;22.70;9.68;;;;;;;;;;5009052;28;20042;-71
2022/03/31 03:21:36;;;;;;;21.27;8.80;;;;;;;;;;5008668;28;20038;-71
2022/03/31 03:24:01;;;;;;;19.02;9.18;;;;;;;;;;5010792;28;20052;-70
2022/03/31 03:26:27;;;;;;;12.00;7.22;;;;;;;;;;5008574;28;20030;-71
2022/03/31 03:28:53;;;;;;;15.73;8.50;;;;;;;;;;5009253;28;20104;-70
2022/03/31 03:31:18;;;;;;;19.35;7.45;;;;;;;;;;5011633;28;20728;-71
2022/03/31 03:33:44;;;;;;;10.73;5.43;;;;;;;;;;5005766;28;20053;-71
2022/03/31 03:36:11;;;;;;;13.02;6.68;;;;;;;;;;5009043;28;20052;-70
2022/03/31 03:38:38;;;;;;;15.73;7.68;;;;;;;;;;5008525;28;20034;-70
2022/03/31 03:41:03;;;;;;;11.02;6.25;;;;;;;;;;5008795;28;20029;-71
2022/03/31 03:43:30;;;;;;;14.85;6.80;;;;;;;;;;5010400;28;20427;-71
2022/03/31 03:45:55;;;;;;;11.95;7.15;;;;;;;;;;5008541;28;20041;-71
2022/03/31 03:48:22;;;;;;;14.48;7.95;;;;;;;;;;5007141;28;20034;-71
2022/03/31 03:50:48;;;;;;;11.00;6.15;;;;;;;;;;5005805;28;20045;-71
2022/03/31 03:53:13;;;;;;;8.13;5.57;;;;;;;;;;5009983;28;20026;-71
2022/03/31 03:55:39;;;;;;;12.02;6.85;;;;;;;;;;5007758;28;20487;-71
2022/03/31 03:58:04;;;;;;;17.15;8.52;;;;;;;;;;5004769;28;20081;-71
2022/03/31 04:00:30;;;;;;;19.48;9.43;;;;;;;;;;5010226;28;20049;-70
2022/03/31 04:02:55;;;;;;;14.20;8.07;;;;;;;;;;5008334;28;20073;-71
2022/03/31 04:05:21;;;;;;;20.90;9.35;;;;;;;;;;5006992;28;20087;-71
2022/03/31 04:07:47;;;;;;;18.95;9.95;;;;;;;;;;5005780;28;20116;-71
2022/03/31 04:10:12;;;;;;;25.50;11.93;;;;;;;;;;5000683;28;20549;-71
2022/03/31 04:12:39;;;;;;;19.45;9.52;;;;;;;;;;5006473;28;20046;-71
2022/03/31 04:15:05;;;;;;;21.67;10.15;;;;;;;;;;5006156;28;20030;-71
2022/03/31 04:17:31;;;;;;;20.13;10.48;;;;;;;;;;5012021;28;20038;-71
2022/03/31 04:19:56;;;;;;;25.00;10.88;;;;;;;;;;5005929;28;20026;-71
2022/03/31 04:22:21;;;;;;;19.23;8.45;;;;;;;;;;5006986;28;20168;-71
2022/03/31 04:24:47;;;;;;;19.88;10.20;;;;;;;;;;5010009;28;20072;-70
2022/03/31 04:27:12;;;;;;;9.23;5.35;;;;;;;;;;5009702;28;20034;-71
2022/03/31 04:29:38;;;;;;;10.23;6.10;;;;;;;;;;5003694;28;20045;-70
2022/03/31 04:32:03;;;;;;;7.20;4.38;;;;;;;;;;5009551;28;20064;-70
2022/03/31 04:34:29;;;;;;;7.35;4.47;;;;;;;;;;5006546;28;20087;-70
2022/03/31 04:36:54;;;;;;;10.10;5.53;;;;;;;;;;5006690;28;20080;-70
2022/03/31 04:39:20;;;;;;;8.82;4.57;;;;;;;;;;5004774;28;20504;-71
2022/03/31 04:41:45;;;;;;;9.32;3.90;;;;;;;;;;5007564;28;20427;-71
2022/03/31 04:44:11;;;;;;;9.55;4.93;;;;;;;;;;5010945;28;20033;-69
2022/03/31 04:46:36;;;;;;;14.00;7.43;;;;;;;;;;5010874;28;20030;-69
2022/03/31 04:49:03;;;;;;;15.30;6.78;;;;;;;;;;5005161;28;20466;-69
2022/03/31 04:51:28;;;;;;;11.57;5.35;;;;;;;;;;5007361;28;20038;-69
2022/03/31 04:53:54;;;;;;;13.73;7.15;;;;;;;;;;5008431;28;20038;-69
2022/03/31 04:56:20;;;;;;;9.80;5.82;;;;;;;;;;5008303;28;20060;-69
2022/03/31 04:58:45;;;;;;;11.73;6.40;;;;;;;;;;5007819;28;20017;-70
2022/03/31 05:01:12;;;;;;;14.10;5.72;;;;;;;;;;5004944;28;20042;-69
2022/03/31 05:03:40;;;;;;;12.23;6.00;;;;;;;;;;5006243;28;20045;-69
2022/03/31 05:06:06;;;;;;;13.13;7.15;;;;;;;;;;5004308;28;20053;-70
2022/03/31 05:08:32;;;;;;;13.82;6.30;;;;;;;;;;5007189;28;20441;-70
2022/03/31 05:10:58;;;;;;;15.50;7.18;;;;;;;;;;5004188;28;20502;-70
2022/03/31 05:13:23;;;;;;;16.42;7.82;;;;;;;;;;5008956;28;20523;-70
2022/03/31 05:15:48;;;;;;;14.70;7.55;;;;;;;;;;5008429;28;20814;-70
2022/03/31 05:18:14;;;;;;;19.90;8.68;;;;;;;;;;5010748;28;20033;-68
2022/03/31 05:20:39;;;;;;;17.52;8.40;;;;;;;;;;5008103;28;20041;-69
2022/03/31 05:23:05;;;;;;;21.45;8.40;;;;;;;;;;5013305;28;20108;-70
2022/03/31 05:25:31;;;;;;;15.73;7.72;;;;;;;;;;5025974;28;20065;-69
2022/03/31 05:27:58;;;;;;;14.70;7.40;;;;;;;;;;5008188;28;20073;-70
2022/03/31 05:30:24;;;;;;;17.42;8.93;;;;;;;;;;4997895;28;20088;-70
2022/03/31 05:32:51;;;;;;;18.08;8.73;;;;;;;;;;5005821;28;20050;-70
2022/03/31 05:35:18;;;;;;;17.48;10.60;;;;;;;;;;4994991;28;20460;-70
2022/03/31 05:37:43;;;;;;;17.92;8.93;;;;;;;;;;5007315;28;20056;-69
2022/03/31 05:40:10;;;;;;;15.30;8.45;;;;;;;;;;5012883;28;20404;-69
2022/03/31 05:42:36;;;;;;;15.88;7.50;;;;;;;;;;5011755;28;20034;-69
2022/03/31 05:45:03;;;;;;;18.33;9.60;;;;;;;;;;5009200;28;20503;-70
2022/03/31 05:47:29;;;;;;;18.65;9.02;;;;;;;;;;5001511;28;20087;-69
2022/03/31 05:49:54;;;;;;;17.73;9.38;;;;;;;;;;5009066;28;20037;-69
2022/03/31 05:52:20;;;;;;;15.40;7.55;;;;;;;;;;5007990;28;20069;-69
2022/03/31 05:54:46;;;;;;;16.35;8.00;;;;;;;;;;5008481;28;20095;-70
2022/03/31 05:57:11;;;;;;;20.77;10.15;;;;;;;;;;5008059;28;20038;-70
2022/03/31 05:59:37;;;;;;;16.67;7.35;;;;;;;;;;5003468;28;20031;-69
2022/03/31 06:02:02;;;;;;;23.30;10.93;;;;;;;;;;4996493;28;20100;-70
2022/03/31 06:04:28;;;;;;;24.52;11.10;;;;;;;;;;5008270;28;20586;-69
2022/03/31 06:06:54;;;;;;;20.88;9.15;;;;;;;;;;5006697;28;20044;-69
2022/03/31 06:09:19;;;;;;;29.00;13.00;;;;;;;;;;5003091;28;20034;-73
2022/03/31 06:11:44;;;;;;;29.65;13.85;;;;;;;;;;5004683;28;20081;-74
2022/03/31 06:14:11;;;;;;;32.70;13.68;;;;;;;;;;5015185;28;20034;-73
2022/03/31 06:16:37;;;;;;;29.02;11.43;;;;;;;;;;4989604;28;20034;-72
2022/03/31 06:19:03;;;;;;;33.97;16.45;;;;;;;;;;5009836;28;20044;-72
2022/03/31 06:21:28;;;;;;;33.53;15.30;;;;;;;;;;5009118;28;20136;-73
2022/03/31 06:23:53;;;;;;;31.50;16.15;;;;;;;;;;5008695;28;20048;-71
2022/03/31 06:26:19;;;;;;;27.15;13.93;;;;;;;;;;4994600;28;20037;-72
2022/03/31 06:28:44;;;;;;;28.50;11.88;;;;;;;;;;5004900;28;20296;-72
2022/03/31 06:31:10;;;;;;;28.92;11.35;;;;;;;;;;5001308;28;20472;-71
2022/03/31 06:33:37;;;;;;;27.02;11.48;;;;;;;;;;5003828;28;20066;-72
2022/03/31 06:36:03;;;;;;;24.33;11.05;;;;;;;;;;5009181;28;20045;-73
2022/03/31 06:38:28;;;;;;;30.80;13.48;;;;;;;;;;5007200;28;20147;-74
2022/03/31 06:41:14;;;;;;;28.58;12.43;;;;;;;;;;5013681;28;20037;-72
2022/03/31 06:43:41;;;;;;;27.15;11.75;;;;;;;;;;5010166;28;20075;-75
2022/03/31 06:46:07;;;;;;;28.40;12.80;;;;;;;;;;5009875;28;20598;-75
2022/03/31 06:48:33;;;;;;;30.20;12.30;;;;;;;;;;5007538;28;20053;-73
2022/03/31 06:50:59;;;;;;;24.88;10.43;;;;;;;;;;5004915;28;20399;-71
2022/03/31 06:53:25;;;;;;;27.70;12.38;;;;;;;;;;5007962;28;20034;-71
2022/03/31 06:55:50;;;;;;;34.10;17.73;;;;;;;;;;5009753;28;20037;-71
2022/03/31 06:58:16;;;;;;;23.83;9.27;;;;;;;;;;5015512;28;20030;-73
2022/03/31 07:00:42;;;;;;;22.50;9.25;;;;;;;;;;5008517;28;20515;-72
2022/03/31 07:03:07;;;;;;;19.52;9.20;;;;;;;;;;5005916;28;20046;-73
2022/03/31 07:05:37;;;;;;;19.73;10.60;;;;;;;;;;5007046;28;20050;-73
2022/03/31 07:08:06;;;;;;;19.70;9.20;;;;;;;;;;5001205;28;20030;-74
2022/03/31 07:10:32;;;;;;;25.25;11.85;;;;;;;;;;5001053;28;20061;-80
2022/03/31 07:13:00;;;;;;;26.08;12.82;;;;;;;;;;5004690;28;20653;-74
2022/03/31 07:15:25;;;;;;;21.30;9.68;;;;;;;;;;4997850;28;20769;-77
2022/03/31 07:17:51;;;;;;;20.17;9.45;;;;;;;;;;4996973;28;20092;-72
2022/03/31 07:20:16;;;;;;;21.65;9.95;;;;;;;;;;4999738;28;20551;-73
2022/03/31 07:22:44;;;;;;;23.33;10.50;;;;;;;;;;4999804;28;20022;-72
2022/03/31 07:25:09;;;;;;;22.15;10.18;;;;;;;;;;5004507;28;20049;-73
2022/03/31 07:27:35;;;;;;;18.85;10.32;;;;;;;;;;5006393;28;20606;-74
2022/03/31 07:30:00;;;;;;;19.48;8.02;;;;;;;;;;5006033;28;20041;-73
2022/03/31 07:32:25;;;;;;;22.90;10.48;;;;;;;;;;5002568;28;20061;-73
2022/03/31 07:34:51;;;;;;;20.60;8.70;;;;;;;;;;5001684;28;20046;-73
2022/03/31 07:37:16;;;;;;;20.05;9.25;;;;;;;;;;5004616;28;20038;-73
2022/03/31 07:39:45;;;;;;;14.55;7.47;;;;;;;;;;4994382;28;20458;-73
2022/03/31 07:42:11;;;;;;;16.42;8.00;;;;;;;;;;5010265;28;20120;-72
2022/03/31 07:44:36;;;;;;;19.33;9.20;;;;;;;;;;5005882;28;20096;-76
2022/03/31 07:47:02;;;;;;;18.58;8.18;;;;;;;;;;4994290;28;20026;-76
2022/03/31 07:49:27;;;;;;;12.85;5.97;;;;;;;;;;5007829;28;20049;-71
2022/03/31 07:51:52;;;;;;;16.67;7.28;;;;;;;;;;4998063;28;20595;-73
2022/03/31 07:54:18;;;;;;;15.57;6.55;;;;;;;;;;5001634;28;20046;-72
2022/03/31 07:56:44;;;;;;;12.38;6.13;;;;;;;;;;5006960;28;20642;-73
2022/03/31 07:59:09;;;;;;;18.60;9.93;;;;;;;;;;5005788;28;20563;-74
2022/03/31 08:01:35;;;;;;;14.10;7.15;;;;;;;;;;5006284;28;20153;-77
2022/03/31 08:04:00;;;;;;;13.85;6.50;;;;;;;;;;5012582;28;20049;-74
2022/03/31 08:06:26;;;;;;;14.75;6.85;;;;;;;;;;5010274;28;20042;-73
2022/03/31 08:08:51;;;;;;;15.10;7.40;;;;;;;;;;4994912;28;20084;-72
2022/03/31 08:11:17;;;;;;;14.38;6.65;;;;;;;;;;4975569;28;20039;-74
2022/03/31 08:13:42;;;;;;;15.10;7.15;;;;;;;;;;4971054;28;20038;-73
2022/03/31 08:16:08;;;;;;;15.95;7.53;;;;;;;;;;4981621;28;20042;-74
2022/03/31 08:18:34;;;;;;;13.98;6.97;;;;;;;;;;4986087;28;20582;-75
2022/03/31 08:21:00;;;;;;;13.00;6.78;;;;;;;;;;4973805;28;20102;-74
2022/03/31 08:23:26;;;;;;;13.50;7.10;;;;;;;;;;4972986;28;20099;-74
2022/03/31 08:25:52;;;;;;;15.20;7.10;;;;;;;;;;4985706;28;20133;-74
2022/03/31 08:28:18;;;;;;;17.63;9.25;;;;;;;;;;4972736;28;20042;-74
2022/03/31 08:30:43;;;;;;;19.70;12.98;;;;;;;;;;4979684;28;20053;-75
2022/03/31 08:33:09;;;;;;;17.50;9.10;;;;;;;;;;4981386;28;20049;-74
2022/03/31 08:35:34;;;;;;;19.63;10.90;;;;;;;;;;4985016;28;20034;-73
2022/03/31 08:38:00;;;;;;;16.00;7.95;;;;;;;;;;4985631;28;20088;-75
2022/03/31 08:40:25;;;;;;;19.42;10.07;;;;;;;;;;4984182;28;20049;-75
2022/03/31 08:42:52;;;;;;;18.60;9.23;;;;;;;;;;4986454;28;20508;-78
2022/03/31 08:45:20;;;;;;;15.68;7.43;;;;;;;;;;4987281;28;20041;-75
2022/03/31 08:47:49;;;;;;;17.40;7.68;;;;;;;;;;4978772;28;20034;-75
2022/03/31 08:50:15;;;;;;;12.07;5.38;;;;;;;;;;4973579;28;20500;-75
2022/03/31 08:52:40;;;;;;;8.38;5.22;;;;;;;;;;4976624;28;20030;-77
2022/03/31 08:55:08;;;;;;;9.05;4.82;;;;;;;;;;4976539;28;20137;-74
2022/03/31 08:57:42;;;;;;;7.78;4.82;;;;;;;;;;4980160;28;20043;-74
2022/03/31 09:00:09;;;;;;;8.88;4.50;;;;;;;;;;4971985;28;20142;-74
2022/03/31 09:02:34;;;;;;;8.63;4.70;;;;;;;;;;4976665;28;20583;-72
2022/03/31 09:05:05;;;;;;;7.88;3.63;;;;;;;;;;4980848;28;20027;-71
2022/03/31 09:07:30;;;;;;;8.50;4.72;;;;;;;;;;5004008;28;20042;-71
2022/03/31 09:09:55;;;;;;;6.43;3.47;;;;;;;;;;5003962;28;20480;-72
2022/03/31 09:12:24;;;;;;;6.25;3.70;;;;;;;;;;5004720;28;20580;-72
2022/03/31 09:14:49;;;;;;;7.78;4.15;;;;;;;;;;5002218;28;20128;-72
2022/03/31 09:17:17;;;;;;;7.18;4.22;;;;;;;;;;5010197;28;20052;-72
2022/03/31 09:19:43;;;;;;;6.97;3.80;;;;;;;;;;5001658;28;20042;-72
2022/03/31 09:22:09;;;;;;;7.35;3.95;;;;;;;;;;5004065;28;20073;-72
2022/03/31 09:24:35;;;;;;;6.60;3.35;;;;;;;;;;5002331;28;20486;-72
2022/03/31 09:27:02;;;;;;;3.55;1.77;;;;;;;;;;4996158;28;20423;-72
2022/03/31 09:29:29;;;;;;;6.15;3.97;;;;;;;;;;5000284;28;20577;-72
2022/03/31 09:32:12;;;;;;;6.50;3.85;;;;;;;;;;5004137;28;20037;-72
2022/03/31 09:34:50;;;;;;;6.30;3.92;;;;;;;;;;4981666;28;20121;-72
2022/03/31 09:37:16;;;;;;;6.45;3.88;;;;;;;;;;4980047;28;20042;-72
2022/03/31 09:39:42;;;;;;;6.60;3.60;;;;;;;;;;4985640;28;20045;-72
2022/03/31 09:42:12;;;;;;;5.20;2.80;;;;;;;;;;4994113;28;20033;-71
2022/03/31 09:44:38;;;;;;;4.53;2.80;;;;;;;;;;4998498;28;20030;-72
2022/03/31 09:47:03;;;;;;;4.75;3.10;;;;;;;;;;4995760;28;20030;-71
2022/03/31 09:49:29;;;;;;;4.60;2.92;;;;;;;;;;4996971;28;20045;-72
2022/03/31 09:51:57;;;;;;;3.90;2.08;;;;;;;;;;5005975;28;20061;-71
2022/03/31 09:54:26;;;;;;;4.22;2.67;;;;;;;;;;5009235;28;20476;-72
2022/03/31 09:56:53;;;;;;;4.22;2.63;;;;;;;;;;5005785;28;20034;-72
2022/03/31 09:59:18;;;;;;;4.90;2.50;;;;;;;;;;5008188;28;20038;-72
2022/03/31 10:01:45;;;;;;;3.92;2.63;;;;;;;;;;5007749;28;20048;-70
2022/03/31 10:04:13;;;;;;;5.18;3.17;;;;;;;;;;5010328;28;20053;-70
2022/03/31 10:06:41;;;;;;;3.92;2.40;;;;;;;;;;5000492;28;20053;-71
2022/03/31 10:09:09;;;;;;;3.05;2.20;;;;;;;;;;5005347;28;20610;-71
2022/03/31 10:11:43;;;;;;;4.47;2.47;;;;;;;;;;5007899;28;20038;-71
2022/03/31 10:14:46;;;;;;;1.38;1.17;;;;;;;;;;5005478;28;20426;-74
2022/03/31 10:17:12;;;;;;;4.15;2.20;;;;;;;;;;4996769;28;20030;-71
2022/03/31 10:19:43;;;;;;;3.42;1.92;;;;;;;;;;4999233;28;20566;-73
2022/03/31 10:24:41;;;;;;;4.43;1.70;;;;;;;;;;5007135;28;20125;-72
2022/03/31 10:24:57;;;;;;;6.40;1.42;;;;;;;;;;5023502;28;20518;-71
2022/03/31 10:27:32;;;;;;;3.10;2.00;;;;;;;;;;4988768;28;20052;-72
2022/03/31 10:30:16;;;;;;;3.25;1.90;;;;;;;;;;4998110;28;20516;-73
2022/03/31 10:33:04;;;;;;;2.85;1.77;;;;;;;;;;4997031;28;20712;-73
2022/03/31 10:35:35;;;;;;;2.97;1.67;;;;;;;;;;5005654;28;20096;-73
2022/03/31 10:38:23;;;;;;;4.47;1.75;;;;;;;;;;5004757;28;20057;-73
2022/03/31 10:40:59;;;;;;;3.15;1.42;;;;;;;;;;5000786;28;20057;-73
2022/03/31 10:43:27;;;;;;;2.88;1.58;;;;;;;;;;5008194;28;20089;-73
2022/03/31 10:45:54;;;;;;;4.47;1.40;;;;;;;;;;4989059;28;20038;-73
2022/03/31 10:48:25;;;;;;;4.88;1.75;;;;;;;;;;4989547;28;20073;-74
2022/03/31 10:51:08;;;;;;;1.92;1.30;;;;;;;;;;5004430;28;20506;-76
2022/03/31 10:53:36;;;;;;;8.02;1.98;;;;;;;;;;5006224;28;20048;-71
2022/03/31 10:56:14;;;;;;;3.22;1.80;;;;;;;;;;5004939;28;20121;-71
2022/03/31 10:58:41;;;;;;;2.65;1.38;;;;;;;;;;4999523;28;20153;-71
2022/03/31 11:01:06;;;;;;;3.40;1.80;;;;;;;;;;4987255;28;20046;-71
2022/03/31 11:03:32;;;;;;;1.98;1.45;;;;;;;;;;4998455;28;20095;-76
2022/03/31 11:06:00;;;;;;;1.60;1.20;;;;;;;;;;5005656;28;20041;-73
2022/03/31 11:08:26;;;;;;;3.60;1.35;;;;;;;;;;5002947;28;20042;-75
2022/03/31 11:10:53;;;;;;;4.60;2.90;;;;;;;;;;5008774;28;20037;-76
2022/03/31 11:13:29;;;;;;;5.15;3.20;;;;;;;;;;4998225;28;20042;-71
2022/03/31 11:15:55;;;;;;;5.32;2.60;;;;;;;;;;5006535;28;20048;-73
2022/03/31 11:18:21;;;;;;;5.30;2.53;;;;;;;;;;4994250;28;20038;-71
2022/03/31 11:20:56;;;;;;;6.60;3.13;;;;;;;;;;5000006;28;20053;-71
2022/03/31 11:23:21;;;;;;;5.57;2.70;;;;;;;;;;4995420;28;20026;-70
2022/03/31 11:25:47;;;;;;;4.32;2.75;;;;;;;;;;5000482;28;20496;-71
2022/03/31 11:28:13;;;;;;;3.35;2.70;;;;;;;;;;4997805;28;20042;-76
2022/03/31 11:30:40;;;;;;;10.73;5.97;;;;;;;;;;5000620;28;20047;-72
2022/03/31 11:33:09;;;;;;;18.55;7.13;;;;;;;;;;5002304;28;20041;-71
2022/03/31 11:35:35;;;;;;;8.65;3.35;;;;;;;;;;5004661;28;20034;-72
2022/03/31 11:38:03;;;;;;;5.88;3.45;;;;;;;;;;5000063;28;20075;-72
2022/03/31 11:40:35;;;;;;;5.80;3.55;;;;;;;;;;5004123;28;20052;-72
2022/03/31 11:43:02;;;;;;;5.53;3.80;;;;;;;;;;4991541;28;20046;-72
2022/03/31 11:45:29;;;;;;;5.35;3.72;;;;;;;;;;5002699;28;20874;-72
2022/03/31 11:47:59;;;;;;;6.32;4.13;;;;;;;;;;4998977;28;20495;-72
2022/03/31 11:50:26;;;;;;;12.10;5.97;;;;;;;;;;4994762;28;20030;-72
2022/03/31 11:52:52;;;;;;;7.38;5.28;;;;;;;;;;4993231;28;20061;-72
2022/03/31 11:55:20;;;;;;;11.10;6.30;;;;;;;;;;5000192;28;20038;-72
2022/03/31 11:57:53;;;;;;;12.07;6.68;;;;;;;;;;5003704;28;20471;-74
2022/03/31 12:00:19;;;;;;;13.40;6.80;;;;;;;;;;5004387;28;20050;-77
2022/03/31 12:02:57;;;;;;;10.38;6.22;;;;;;;;;;5004148;28;20423;-66
2022/03/31 12:05:23;;;;;;;10.35;5.97;;;;;;;;;;5003789;28;20108;-65
2022/03/31 12:07:50;;;;;;;7.78;4.97;;;;;;;;;;5000883;28;20404;-66
2022/03/31 12:10:15;;;;;;;9.38;5.22;;;;;;;;;;4995678;28;20044;-66
2022/03/31 12:12:49;;;;;;;12.90;7.00;;;;;;;;;;4995836;28;20041;-66
2022/03/31 12:15:27;;;;;;;10.40;6.00;;;;;;;;;;4992906;28;20045;-66
2022/03/31 12:18:01;;;;;;;14.30;7.35;;;;;;;;;;4996265;28;20543;-66
2022/03/31 12:20:28;;;;;;;11.38;6.35;;;;;;;;;;4995059;28;20766;-67
2022/03/31 12:22:54;;;;;;;8.43;4.93;;;;;;;;;;4996458;28;20030;-66
2022/03/31 12:25:34;;;;;;;10.45;5.47;;;;;;;;;;5001882;28;20042;-66
2022/03/31 12:28:05;;;;;;;9.75;5.65;;;;;;;;;;4998562;28;20042;-67
2022/03/31 12:30:43;;;;;;;10.30;6.43;;;;;;;;;;5001444;28;20069;-68
2022/03/31 12:33:30;;;;;;;5.70;3.03;;;;;;;;;;4990077;28;20046;-66
2022/03/31 12:36:00;;;;;;;12.27;5.28;;;;;;;;;;4997664;28;20033;-65
2022/03/31 12:38:52;;;;;;;9.20;6.07;;;;;;;;;;5004522;28;20029;-68
2022/03/31 12:41:33;;;;;;;10.02;5.95;;;;;;;;;;4985247;28;20125;-67
2022/03/31 12:44:03;;;;;;;11.00;6.38;;;;;;;;;;4996937;28;20033;-67
2022/03/31 12:46:32;;;;;;;8.65;5.65;;;;;;;;;;5004195;28;20046;-69
2022/03/31 12:49:09;;;;;;;12.30;5.82;;;;;;;;;;5001969;28;20728;-69
2022/03/31 12:51:47;;;;;;;8.80;4.70;;;;;;;;;;4990622;28;20160;-69
2022/03/31 12:54:22;;;;;;;5.82;3.65;;;;;;;;;;5001957;28;20045;-69
2022/03/31 12:56:49;;;;;;;7.28;4.43;;;;;;;;;;5002617;28;20058;-69
2022/03/31 12:59:19;;;;;;;6.07;4.03;;;;;;;;;;5002849;28;20547;-69
2022/03/31 13:02:00;;;;;;;12.23;6.35;;;;;;;;;;5005179;28;20061;-69
2022/03/31 13:04:26;;;;;;;1.80;1.23;;;;;;;;;;5003832;28;20049;-68
2022/03/31 13:06:52;;;;;;;5.25;1.38;;;;;;;;;;4993140;28;20048;-68
2022/03/31 13:09:17;;;;;;;3.92;1.08;;;;;;;;;;4992458;28;20038;-66
2022/03/31 13:11:43;;;;;;;1.92;1.30;;;;;;;;;;4994428;28;20052;-67
2022/03/31 13:14:12;;;;;;;1.58;1.30;;;;;;;;;;4995027;28;20134;-68
2022/03/31 13:16:40;;;;;;;2.65;1.38;;;;;;;;;;4997811;28;20026;-68
2022/03/31 13:19:06;;;;;;;4.70;1.88;;;;;;;;;;4996833;28;20115;-67
2022/03/31 13:21:32;;;;;;;2.50;1.58;;;;;;;;;;4989199;28;20335;-68
2022/03/31 13:23:58;;;;;;;2.20;1.50;;;;;;;;;;4990484;28;20046;-68
2022/03/31 13:26:23;;;;;;;4.85;1.67;;;;;;;;;;4992797;28;20053;-67
2022/03/31 13:28:48;;;;;;;1.50;1.38;;;;;;;;;;5007737;28;20042;-71
2022/03/31 13:31:14;;;;;;;1.75;1.10;;;;;;;;;;5006994;28;20140;-70
2022/03/31 13:33:39;;;;;;;1.17;1.05;;;;;;;;;;5006682;28;20475;-71
2022/03/31 13:36:04;;;;;;;2.97;1.50;;;;;;;;;;5006982;28;20512;-72
2022/03/31 13:38:35;;;;;;;1.48;1.25;;;;;;;;;;4996328;28;20041;-70
2022/03/31 13:41:02;;;;;;;1.50;1.20;;;;;;;;;;4997790;28;20034;-70
2022/03/31 13:43:28;;;;;;;10.43;1.00;;;;;;;;;;4998836;28;20042;-71
2022/03/31 13:45:54;;;;;;;1.75;1.30;;;;;;;;;;4998957;28;20066;-72
2022/03/31 13:48:20;;;;;;;3.58;1.48;;;;;;;;;;5001306;28;20080;-72
2022/03/31 13:50:45;;;;;;;3.15;0.90;;;;;;;;;;5001515;28;20466;-71
2022/03/31 13:55:56;;;;;;;1.70;1.50;;;;;;;;;;4996292;28;20674;-70
2022/03/31 14:01:12;;;;;;;1.23;0.90;;;;;;;;;;5019826;28;20443;-71
2022/03/31 14:03:43;;;;;;;2.85;1.45;;;;;;;;;;5009581;28;20581;-68
2022/03/31 14:06:10;;;;;;;1.08;0.98;;;;;;;;;;5005354;28;20040;-71
2022/03/31 14:08:36;;;;;;;1.35;0.90;;;;;;;;;;5000480;28;20562;-72
2022/03/31 14:11:04;;;;;;;0.68;0.68;;;;;;;;;;5006912;28;20030;-73
2022/03/31 14:13:31;;;;;;;0.70;0.70;;;;;;;;;;5009753;28;20042;-70
2022/03/31 14:15:57;;;;;;;1.20;0.88;;;;;;;;;;5009121;28;20054;-70
2022/03/31 14:18:25;;;;;;;1.08;0.95;;;;;;;;;;5006027;28;20045;-68
2022/03/31 14:20:51;;;;;;;1.60;1.10;;;;;;;;;;5003976;28;20034;-72
2022/03/31 14:23:19;;;;;;;1.50;1.25;;;;;;;;;;4993142;28;20389;-72
2022/03/31 14:25:44;;;;;;;2.78;1.23;;;;;;;;;;5000739;28;20585;-70
2022/03/31 14:28:10;;;;;;;1.40;1.13;;;;;;;;;;5002941;28;20038;-71
2022/03/31 14:30:35;;;;;;;1.10;0.90;;;;;;;;;;4994495;28;20077;-72
2022/03/31 14:33:01;;;;;;;0.80;0.80;;;;;;;;;;4981130;28;20423;-73
2022/03/31 14:35:28;;;;;;;1.50;0.90;;;;;;;;;;4981444;28;20045;-72
2022/03/31 14:37:56;;;;;;;3.63;0.95;;;;;;;;;;4983438;28;20026;-69
2022/03/31 14:40:21;;;;;;;1.20;0.90;;;;;;;;;;4979442;28;20049;-69